KLCH/LCH METAR and TAF weather

Enter ICAO airport designator
Station Type Date Time Source
KLCH METAR 2019/02/20 16:53 UTC NOAA

KLCH 201653Z 34006KT 10SM OVC007 11/11 A2998 RMK AO2 SLP161 T01110111


Station Type Date Time Source
KLCH Decoded METAR 2019/02/20 16:53 UTC NOAA

LAKE CHARLES REGIONAL AIRPORT , LA, United States (KLCH) 30-12N 093-23W 3M
Feb 20, 2019 - 11:53 AM EST / 2019.02.20 1653 UTC
Wind: from the NNW (340 degrees) at 7 MPH (6 KT):0
Visibility: 10 mile(s):0
Sky conditions: overcast
Temperature: 52.0 F (11.1 C)
Dew Point: 52.0 F (11.1 C)
Relative Humidity: 100%
Pressure (altimeter): 29.98 in. Hg (1015 hPa)
ob: KLCH 201653Z 34006KT 10SM OVC007 11/11 A2998 RMK AO2 SLP161 T01110111
cycle: 17

Station Type Date Time Source
KLCH TAF 2019/02/20 12:33 UTC NOAA

TAF KLCH 201130Z 2012/2112 31008KT 4SM BR VCSH OVC003
TEMPO 2012/2014 6SM -SHRA
FM201400 34008KT P6SM VCSH OVC005
FM201700 34007KT P6SM BKN015
FM201900 36008KT P6SM BKN050
FM210000 03004KT P6SM SCT050 BKN200


Example: see airport list